• Join FlightAware (Why Join?)
  • Login
  • US Flag 
02:58AM EST


 

Airport Tracker/Info


-or-


 

Live Flight TrackerFlight Track Log ✈ N589H ✈ 05-Mar-2014 ✈ KPIE - KVRB

Flight Track Log - Related Links

Times and Time Zones

All times are in EST time to prevent confusion due to time zone crossing. See the N589H flight status page for this flight to view local times or setup timezone preferences in your user account.

Time Position Orientation Groundspeed Altitude Reporting Facility
EST Latitude Longitude Course Direction KTS MPH feet Rate Location/Type
04:28PM 27.9333 -82.6833 80° East 145 167 600  Level Tampa TRACON
04:29PM 27.9667 -82.7000 336° Northwest 184 212 1,400 1,620 Climbing Tampa TRACON
04:30PM 28.0167 -82.7167 344° North 200 230 3,400 2,040 Climbing Tampa TRACON
04:31PM 28.0500 -82.7000 24° Northeast 188 216 5,300 2,040 Climbing Tampa TRACON
04:32PM 28.0500 -82.6333 90° East 213 245 7,500 1,740 Climbing Tampa TRACON
04:33PM 28.0500 -82.5667 90° East 236 272 9,000 720 Climbing Tampa TRACON
04:34PM 27.9518 -82.2049 80° East  Level FlightAware Approximate
04:34PM 28.0333 -82.4833 103° East 307 353 9,000  Level Tampa TRACON
04:35PM 28.0167 -82.3833 101° East 319 367 9,000  Level Tampa TRACON
04:36PM 28.0167 -82.2833 90° East 315 362 9,000  Level Tampa TRACON
04:37PM 28.0000 -82.1833 101° East 310 357 9,000  Level Tampa TRACON
04:39PM 28.0000 -81.9500 90° East 306 352 9,000  Level Orlando TRACON
04:40PM 28.0167 -81.8500 79° East 308 354 9,000  Level Orlando TRACON
04:43PM 28.0094 -81.6658 93° East 330 380 9,000  Level Miami Center
04:44PM 27.9853 -81.5756 107° East 310 357 9,000  Level Miami Center
04:45PM 27.9611 -81.4875 107° East 299 344 9,000  Level Miami Center
04:46PM 27.9350 -81.3903 107° East 293 337 9,000 -60 Level Miami Center
04:47PM 27.9083 -81.3092 110° East 293 337 8,900 -60 Descending Miami Center
04:48PM 27.8839 -81.2192 107° East 293 337 8,900  Level Miami Center
04:49PM 27.8594 -81.1311 107° East 293 337 8,900 -660 Level Miami Center
04:50PM 27.8367 -81.0506 108° East 293 337 7,600 -1,800 Descending Miami Center
04:51PM 27.8083 -80.9486 107° East 288 331 5,400 -2,040 Descending Miami Center
04:52PM 27.7875 -80.8750 108° East 288 331 3,500 -1,800 Descending Miami Center
04:53PM 27.7628 -80.7897 108° East 273 314 1,900 -840 Descending Miami Center
04:54PM 27.7414 -80.7233 110° East 254 292 1,900  Level Miami Center
04:55PM 27.7225 -80.6478 106° East 249 287 1,900  Level Miami Center
04:56PM 27.7033 -80.5883 110° East 249 287 1,900 -300 Level Miami Center
04:57PM 27.6842 -80.5150 106° East 205 236 1,300 -600 Descending Miami Center
04:58PM 27.6708 -80.4678 108° East 169 194 800 -600 Descending Miami Center
04:59PM 27.6611 -80.4392 111° Southeast 144 166 200 -600 Descending Miami Center